KHEY/HEY METAR and TAF weather

Enter ICAO airport designator
Station Type Date Time Source
KHEY METAR 2019/08/24 07:58 UTC NOAA

KHEY 240758Z AUTO 00000KT 10SM CLR 24/24 A2997 RMK AO2 SLP148 T02350235 403290225


Station Type Date Time Source
KHEY Decoded METAR 2019/08/24 07:58 UTC NOAA

Station name not available
Aug 24, 2019 - 03:58 AM EDT / 2019.08.24 0758 UTC
Wind: Calm:0
Visibility: 10 mile(s):0
Sky conditions: clear
Temperature: 74.3 F (23.5 C)
Dew Point: 74.3 F (23.5 C)
Relative Humidity: 100%
Pressure (altimeter): 29.97 in. Hg (1014 hPa)
ob: KHEY 240758Z AUTO 00000KT 10SM CLR 24/24 A2997 RMK AO2 SLP148 T02350235 403290225
cycle: 8

Station Type Date Time Source
KHEY TAF UTC NOAA

Error!

Example: see airport list